Kezdőlap
METAR-TAF:

METAR-TAF

Repülőterek :

Bhubaneswar, India

földrajzi szélesség: 20-14-40N, földrajzi hosszúság: 85-49-04E, magasság: 45 m

Jelenlegi meteorológiai megfigyelések

A jelentés 28 perccel ezelõtt készült, 09:30 UTC
Déli szél 10 kt
Hőmérséklet 37°C
Páratartalom 40%
Légköri nyomás 1005 hPa
Látótávolság: 4000 m
Szakadozott felhőzet 1800 lábon
Kevés felhő 3000 lábon, Cumulonimbus.
Szakadozott felhőzet 9000 lábon
zivatar, enyhe esõ

METAR: VEBS 240930Z 18010KT 4000 -TSRA BKN018 FEW030CB BKN090 37/21 Q1005 TEMPO 1500 TSRA

Idő: 15:28 (09:58 UTC)

Előrejelzés

A jelentés 1 órával és 58 perccel ezelõtt készült, 08:00 UTC
Az előrejelzés 24-én 09 óra UTC és 24-én 18 óra UTC között érvényes
Dél-délnyugati szél 5 kt
Látótávolság: 5000 m
Kevés felhő 2000 lábon
Száraz légköri homály,

TAF: VEBS 240800Z 2409/2418 21005KT 5000 HZ FEW020

Meteorológiai megfigyelések és előrejelzések több, mint 4000 repülőtéren (METAR és TAF jelentéseket).

A térképen piros és sárga pontok jelzik az elérhető meteorológiai állomásokat.

Mozgassa az egeret a pont fölött, hogy megjelenjen az állomás neve.

Azután kattintson az időjárási megfigyelések és előrejelzések megtekintéséhez.

A térkép megváltoztatása: kattintson a fekete keresztel jelölt zöld gombra ráközelítéshez, a vonallal jelölt zöld gombra távolításhoz, vagy a zöld nyilakra a szomszédos térképek eléréséhez.


METAR-TAF: